sensor_id;sensor_type;location;lat;lon;timestamp;P1;durP1;ratioP1;P2;durP2;ratioP2
20294;SDS011;10306;52.128;5.208;2023-07-29T00:02:08;1.77;;;1.30;;
20294;SDS011;10306;52.128;5.208;2023-07-29T00:04:34;1.83;;;1.23;;
20294;SDS011;10306;52.128;5.208;2023-07-29T00:07:00;1.20;;;1.20;;
20294;SDS011;10306;52.128;5.208;2023-07-29T00:09:26;1.50;;;1.40;;
20294;SDS011;10306;52.128;5.208;2023-07-29T00:11:52;1.13;;;1.13;;
20294;SDS011;10306;52.128;5.208;2023-07-29T00:14:18;3.23;;;1.30;;
20294;SDS011;10306;52.128;5.208;2023-07-29T00:16:44;1.20;;;1.10;;
20294;SDS011;10306;52.128;5.208;2023-07-29T00:19:10;1.23;;;1.10;;
20294;SDS011;10306;52.128;5.208;2023-07-29T00:21:36;3.03;;;1.30;;
20294;SDS011;10306;52.128;5.208;2023-07-29T00:24:02;1.20;;;1.20;;
20294;SDS011;10306;52.128;5.208;2023-07-29T00:26:28;1.30;;;1.30;;
20294;SDS011;10306;52.128;5.208;2023-07-29T00:28:57;0.97;;;0.97;;
20294;SDS011;10306;52.128;5.208;2023-07-29T00:31:23;1.00;;;1.00;;
20294;SDS011;10306;52.128;5.208;2023-07-29T00:33:49;1.57;;;1.47;;
20294;SDS011;10306;52.128;5.208;2023-07-29T00:36:17;1.17;;;1.00;;
20294;SDS011;10306;52.128;5.208;2023-07-29T00:38:43;2.37;;;1.37;;
20294;SDS011;10306;52.128;5.208;2023-07-29T00:41:09;1.23;;;1.13;;
20294;SDS011;10306;52.128;5.208;2023-07-29T00:43:38;2.77;;;1.10;;
20294;SDS011;10306;52.128;5.208;2023-07-29T00:46:04;1.10;;;0.90;;
20294;SDS011;10306;52.128;5.208;2023-07-29T00:48:30;1.40;;;1.30;;
20294;SDS011;10306;52.128;5.208;2023-07-29T00:50:56;1.37;;;1.10;;
20294;SDS011;10306;52.128;5.208;2023-07-29T00:53:22;1.13;;;1.03;;
20294;SDS011;10306;52.128;5.208;2023-07-29T00:55:48;1.23;;;1.10;;
20294;SDS011;10306;52.128;5.208;2023-07-29T00:58:14;1.10;;;1.10;;
20294;SDS011;10306;52.128;5.208;2023-07-29T01:00:40;1.23;;;1.20;;
20294;SDS011;10306;52.128;5.208;2023-07-29T01:03:07;1.67;;;1.17;;
20294;SDS011;10306;52.128;5.208;2023-07-29T01:05:36;1.23;;;1.17;;
20294;SDS011;10306;52.128;5.208;2023-07-29T01:08:06;3.87;;;1.50;;
20294;SDS011;10306;52.128;5.208;2023-07-29T01:10:40;0.93;;;0.93;;
20294;SDS011;10306;52.128;5.208;2023-07-29T01:15:39;1.70;;;1.60;;
20294;SDS011;10306;52.128;5.208;2023-07-29T01:18:10;1.73;;;1.30;;
20294;SDS011;10306;52.128;5.208;2023-07-29T01:20:37;1.30;;;1.20;;
20294;SDS011;10306;52.128;5.208;2023-07-29T01:23:04;4.10;;;1.93;;
20294;SDS011;10306;52.128;5.208;2023-07-29T01:25:30;2.37;;;2.20;;
20294;SDS011;10306;52.128;5.208;2023-07-29T01:27:56;2.77;;;2.10;;
20294;SDS011;10306;52.128;5.208;2023-07-29T01:30:35;2.40;;;1.70;;
20294;SDS011;10306;52.128;5.208;2023-07-29T01:33:05;2.23;;;2.13;;
20294;SDS011;10306;52.128;5.208;2023-07-29T01:35:51;5.23;;;2.83;;
20294;SDS011;10306;52.128;5.208;2023-07-29T01:38:18;5.13;;;2.53;;
20294;SDS011;10306;52.128;5.208;2023-07-29T01:40:46;2.70;;;2.50;;
20294;SDS011;10306;52.128;5.208;2023-07-29T01:43:12;2.40;;;2.20;;
20294;SDS011;10306;52.128;5.208;2023-07-29T01:45:38;5.33;;;2.87;;
20294;SDS011;10306;52.128;5.208;2023-07-29T01:48:05;3.47;;;2.80;;
20294;SDS011;10306;52.128;5.208;2023-07-29T01:50:31;3.77;;;2.53;;
20294;SDS011;10306;52.128;5.208;2023-07-29T01:52:57;3.87;;;2.30;;
20294;SDS011;10306;52.128;5.208;2023-07-29T01:55:23;5.73;;;3.20;;
20294;SDS011;10306;52.128;5.208;2023-07-29T01:57:49;2.97;;;2.50;;
20294;SDS011;10306;52.128;5.208;2023-07-29T02:00:16;3.17;;;2.50;;
20294;SDS011;10306;52.128;5.208;2023-07-29T02:02:42;4.00;;;3.50;;
20294;SDS011;10306;52.128;5.208;2023-07-29T02:05:08;2.50;;;2.30;;
20294;SDS011;10306;52.128;5.208;2023-07-29T02:07:34;2.60;;;2.40;;
20294;SDS011;10306;52.128;5.208;2023-07-29T02:10:00;3.70;;;3.40;;
20294;SDS011;10306;52.128;5.208;2023-07-29T02:12:26;7.80;;;3.97;;
20294;SDS011;10306;52.128;5.208;2023-07-29T02:14:52;3.87;;;3.57;;
20294;SDS011;10306;52.128;5.208;2023-07-29T02:17:18;3.70;;;3.40;;
20294;SDS011;10306;52.128;5.208;2023-07-29T02:19:44;4.17;;;3.60;;
20294;SDS011;10306;52.128;5.208;2023-07-29T02:22:12;5.20;;;3.60;;
20294;SDS011;10306;52.128;5.208;2023-07-29T02:24:39;3.83;;;3.53;;
20294;SDS011;10306;52.128;5.208;2023-07-29T02:27:05;3.90;;;3.50;;
20294;SDS011;10306;52.128;5.208;2023-07-29T02:29:31;3.87;;;3.43;;
20294;SDS011;10306;52.128;5.208;2023-07-29T02:31:58;5.57;;;3.43;;
20294;SDS011;10306;52.128;5.208;2023-07-29T02:34:24;6.90;;;3.73;;
20294;SDS011;10306;52.128;5.208;2023-07-29T02:36:50;4.47;;;3.23;;
20294;SDS011;10306;52.128;5.208;2023-07-29T02:39:16;5.80;;;3.33;;
20294;SDS011;10306;52.128;5.208;2023-07-29T02:41:42;3.73;;;2.80;;
20294;SDS011;10306;52.128;5.208;2023-07-29T02:44:08;3.17;;;2.87;;
20294;SDS011;10306;52.128;5.208;2023-07-29T02:46:33;2.67;;;2.47;;
20294;SDS011;10306;52.128;5.208;2023-07-29T02:49:01;3.03;;;2.53;;
20294;SDS011;10306;52.128;5.208;2023-07-29T02:51:27;3.50;;;2.47;;
20294;SDS011;10306;52.128;5.208;2023-07-29T02:53:53;3.00;;;2.47;;
20294;SDS011;10306;52.128;5.208;2023-07-29T02:56:19;2.93;;;2.37;;
20294;SDS011;10306;52.128;5.208;2023-07-29T02:58:45;2.90;;;2.20;;
20294;SDS011;10306;52.128;5.208;2023-07-29T03:01:11;2.50;;;2.30;;
20294;SDS011;10306;52.128;5.208;2023-07-29T03:03:37;3.30;;;2.20;;
20294;SDS011;10306;52.128;5.208;2023-07-29T03:06:07;2.70;;;2.40;;
20294;SDS011;10306;52.128;5.208;2023-07-29T03:08:33;2.60;;;1.93;;
20294;SDS011;10306;52.128;5.208;2023-07-29T03:11:04;3.20;;;2.20;;
20294;SDS011;10306;52.128;5.208;2023-07-29T03:13:30;2.90;;;2.30;;
20294;SDS011;10306;52.128;5.208;2023-07-29T03:16:04;2.00;;;1.90;;
20294;SDS011;10306;52.128;5.208;2023-07-29T03:18:30;2.57;;;2.13;;
20294;SDS011;10306;52.128;5.208;2023-07-29T03:20:56;2.10;;;2.00;;
20294;SDS011;10306;52.128;5.208;2023-07-29T03:23:22;1.80;;;1.70;;
20294;SDS011;10306;52.128;5.208;2023-07-29T03:25:48;2.20;;;2.00;;
20294;SDS011;10306;52.128;5.208;2023-07-29T03:28:21;2.40;;;2.10;;
20294;SDS011;10306;52.128;5.208;2023-07-29T03:30:47;2.90;;;2.10;;
20294;SDS011;10306;52.128;5.208;2023-07-29T03:33:13;1.80;;;1.70;;
20294;SDS011;10306;52.128;5.208;2023-07-29T03:35:39;2.27;;;2.10;;
20294;SDS011;10306;52.128;5.208;2023-07-29T03:38:05;2.00;;;1.90;;
20294;SDS011;10306;52.128;5.208;2023-07-29T03:40:31;2.30;;;1.90;;
20294;SDS011;10306;52.128;5.208;2023-07-29T03:42:57;5.03;;;1.97;;
20294;SDS011;10306;52.128;5.208;2023-07-29T03:45:23;2.80;;;2.10;;
20294;SDS011;10306;52.128;5.208;2023-07-29T03:47:49;2.30;;;2.10;;
20294;SDS011;10306;52.128;5.208;2023-07-29T03:50:15;1.80;;;1.70;;
20294;SDS011;10306;52.128;5.208;2023-07-29T03:52:41;1.87;;;1.77;;
20294;SDS011;10306;52.128;5.208;2023-07-29T03:55:07;1.77;;;1.67;;
20294;SDS011;10306;52.128;5.208;2023-07-29T03:57:33;1.97;;;1.83;;
20294;SDS011;10306;52.128;5.208;2023-07-29T03:59:59;2.40;;;2.20;;
20294;SDS011;10306;52.128;5.208;2023-07-29T04:02:25;2.17;;;2.07;;
20294;SDS011;10306;52.128;5.208;2023-07-29T04:04:51;1.87;;;1.77;;
20294;SDS011;10306;52.128;5.208;2023-07-29T04:07:17;2.47;;;1.90;;
20294;SDS011;10306;52.128;5.208;2023-07-29T04:09:43;2.37;;;2.17;;
20294;SDS011;10306;52.128;5.208;2023-07-29T04:12:09;2.70;;;1.70;;
20294;SDS011;10306;52.128;5.208;2023-07-29T04:14:35;2.17;;;2.07;;
20294;SDS011;10306;52.128;5.208;2023-07-29T04:17:01;2.53;;;2.10;;
20294;SDS011;10306;52.128;5.208;2023-07-29T04:19:27;1.83;;;1.73;;
20294;SDS011;10306;52.128;5.208;2023-07-29T04:21:53;2.23;;;2.03;;
20294;SDS011;10306;52.128;5.208;2023-07-29T04:24:19;2.63;;;2.10;;
20294;SDS011;10306;52.128;5.208;2023-07-29T04:26:45;2.80;;;2.60;;
20294;SDS011;10306;52.128;5.208;2023-07-29T04:29:11;2.33;;;2.23;;
20294;SDS011;10306;52.128;5.208;2023-07-29T04:31:37;2.93;;;2.17;;
20294;SDS011;10306;52.128;5.208;2023-07-29T04:34:04;2.80;;;2.37;;
20294;SDS011;10306;52.128;5.208;2023-07-29T04:36:30;2.30;;;2.10;;
20294;SDS011;10306;52.128;5.208;2023-07-29T04:38:56;1.97;;;1.70;;
20294;SDS011;10306;52.128;5.208;2023-07-29T04:41:22;2.40;;;2.20;;
20294;SDS011;10306;52.128;5.208;2023-07-29T04:43:48;2.20;;;2.10;;
20294;SDS011;10306;52.128;5.208;2023-07-29T04:46:14;3.50;;;2.00;;
20294;SDS011;10306;52.128;5.208;2023-07-29T04:48:40;2.43;;;2.23;;
20294;SDS011;10306;52.128;5.208;2023-07-29T04:51:06;2.60;;;2.40;;
20294;SDS011;10306;52.128;5.208;2023-07-29T04:53:32;5.47;;;2.20;;
20294;SDS011;10306;52.128;5.208;2023-07-29T04:56:00;3.97;;;2.20;;
20294;SDS011;10306;52.128;5.208;2023-07-29T04:58:26;2.47;;;2.20;;
20294;SDS011;10306;52.128;5.208;2023-07-29T05:00:53;2.80;;;2.60;;
20294;SDS011;10306;52.128;5.208;2023-07-29T05:03:19;2.67;;;2.47;;
20294;SDS011;10306;52.128;5.208;2023-07-29T05:05:45;3.47;;;2.63;;
20294;SDS011;10306;52.128;5.208;2023-07-29T05:08:11;3.13;;;2.43;;
20294;SDS011;10306;52.128;5.208;2023-07-29T05:10:37;3.63;;;2.70;;
20294;SDS011;10306;52.128;5.208;2023-07-29T05:13:03;2.97;;;2.40;;
20294;SDS011;10306;52.128;5.208;2023-07-29T05:15:29;2.63;;;2.53;;
20294;SDS011;10306;52.128;5.208;2023-07-29T05:17:56;2.90;;;2.77;;
20294;SDS011;10306;52.128;5.208;2023-07-29T05:20:22;2.87;;;2.60;;
20294;SDS011;10306;52.128;5.208;2023-07-29T05:22:47;2.63;;;2.43;;
20294;SDS011;10306;52.128;5.208;2023-07-29T05:25:13;3.40;;;3.10;;
20294;SDS011;10306;52.128;5.208;2023-07-29T05:27:39;4.13;;;2.73;;
20294;SDS011;10306;52.128;5.208;2023-07-29T05:30:06;4.37;;;3.40;;
20294;SDS011;10306;52.128;5.208;2023-07-29T05:32:33;3.53;;;3.23;;
20294;SDS011;10306;52.128;5.208;2023-07-29T05:34:59;5.60;;;3.07;;
20294;SDS011;10306;52.128;5.208;2023-07-29T05:37:25;3.10;;;2.90;;
20294;SDS011;10306;52.128;5.208;2023-07-29T05:39:51;3.30;;;3.07;;
20294;SDS011;10306;52.128;5.208;2023-07-29T05:42:17;3.77;;;3.53;;
20294;SDS011;10306;52.128;5.208;2023-07-29T05:44:43;3.93;;;3.67;;
20294;SDS011;10306;52.128;5.208;2023-07-29T05:47:08;6.27;;;3.93;;
20294;SDS011;10306;52.128;5.208;2023-07-29T05:49:34;4.30;;;4.00;;
20294;SDS011;10306;52.128;5.208;2023-07-29T05:52:01;4.07;;;3.77;;
20294;SDS011;10306;52.128;5.208;2023-07-29T05:54:27;4.33;;;3.80;;
20294;SDS011;10306;52.128;5.208;2023-07-29T05:56:52;4.90;;;3.80;;
20294;SDS011;10306;52.128;5.208;2023-07-29T05:59:18;4.67;;;4.13;;
20294;SDS011;10306;52.128;5.208;2023-07-29T06:01:44;5.63;;;3.80;;
20294;SDS011;10306;52.128;5.208;2023-07-29T06:04:10;4.50;;;4.13;;
20294;SDS011;10306;52.128;5.208;2023-07-29T06:06:36;4.47;;;3.83;;
20294;SDS011;10306;52.128;5.208;2023-07-29T06:09:02;4.33;;;4.03;;
20294;SDS011;10306;52.128;5.208;2023-07-29T06:11:28;4.17;;;3.40;;
20294;SDS011;10306;52.128;5.208;2023-07-29T06:13:54;4.90;;;3.80;;
20294;SDS011;10306;52.128;5.208;2023-07-29T06:16:20;4.40;;;4.00;;
20294;SDS011;10306;52.128;5.208;2023-07-29T06:18:46;4.23;;;3.83;;
20294;SDS011;10306;52.128;5.208;2023-07-29T06:21:12;4.20;;;3.90;;
20294;SDS011;10306;52.128;5.208;2023-07-29T06:23:42;4.10;;;3.80;;
20294;SDS011;10306;52.128;5.208;2023-07-29T06:26:08;3.87;;;3.57;;
20294;SDS011;10306;52.128;5.208;2023-07-29T06:28:34;4.20;;;3.90;;
20294;SDS011;10306;52.128;5.208;2023-07-29T06:31:00;4.47;;;4.10;;
20294;SDS011;10306;52.128;5.208;2023-07-29T06:33:26;4.13;;;3.83;;
20294;SDS011;10306;52.128;5.208;2023-07-29T06:35:52;4.20;;;3.83;;
20294;SDS011;10306;52.128;5.208;2023-07-29T06:38:18;5.07;;;4.53;;
20294;SDS011;10306;52.128;5.208;2023-07-29T06:40:47;4.40;;;4.00;;
20294;SDS011;10306;52.128;5.208;2023-07-29T06:43:13;6.50;;;4.70;;
20294;SDS011;10306;52.128;5.208;2023-07-29T06:45:39;4.80;;;4.40;;
20294;SDS011;10306;52.128;5.208;2023-07-29T06:48:05;4.90;;;4.50;;
20294;SDS011;10306;52.128;5.208;2023-07-29T06:50:31;4.70;;;4.30;;
20294;SDS011;10306;52.128;5.208;2023-07-29T06:52:57;4.63;;;3.80;;
20294;SDS011;10306;52.128;5.208;2023-07-29T06:55:23;4.10;;;3.83;;
20294;SDS011;10306;52.128;5.208;2023-07-29T06:57:49;4.73;;;4.23;;
20294;SDS011;10306;52.128;5.208;2023-07-29T07:00:14;4.40;;;4.10;;
20294;SDS011;10306;52.128;5.208;2023-07-29T07:02:40;4.57;;;4.27;;
20294;SDS011;10306;52.128;5.208;2023-07-29T07:05:06;5.30;;;4.87;;
20294;SDS011;10306;52.128;5.208;2023-07-29T07:07:32;8.37;;;4.90;;
20294;SDS011;10306;52.128;5.208;2023-07-29T07:09:58;5.10;;;4.60;;
20294;SDS011;10306;52.128;5.208;2023-07-29T07:12:24;5.70;;;4.93;;
20294;SDS011;10306;52.128;5.208;2023-07-29T07:14:50;4.97;;;4.57;;
20294;SDS011;10306;52.128;5.208;2023-07-29T07:17:16;5.30;;;4.93;;
20294;SDS011;10306;52.128;5.208;2023-07-29T07:19:43;6.33;;;5.53;;
20294;SDS011;10306;52.128;5.208;2023-07-29T07:22:09;6.43;;;5.93;;
20294;SDS011;10306;52.128;5.208;2023-07-29T07:24:35;5.90;;;5.50;;
20294;SDS011;10306;52.128;5.208;2023-07-29T07:27:01;5.60;;;5.20;;
20294;SDS011;10306;52.128;5.208;2023-07-29T07:29:28;6.03;;;5.53;;
20294;SDS011;10306;52.128;5.208;2023-07-29T07:31:56;5.07;;;4.77;;
20294;SDS011;10306;52.128;5.208;2023-07-29T07:34:22;5.97;;;5.27;;
20294;SDS011;10306;52.128;5.208;2023-07-29T07:36:48;5.53;;;5.10;;
20294;SDS011;10306;52.128;5.208;2023-07-29T07:39:14;5.13;;;4.80;;
20294;SDS011;10306;52.128;5.208;2023-07-29T07:41:41;4.77;;;4.47;;
20294;SDS011;10306;52.128;5.208;2023-07-29T07:44:07;4.67;;;4.40;;
20294;SDS011;10306;52.128;5.208;2023-07-29T07:46:33;5.20;;;4.90;;
20294;SDS011;10306;52.128;5.208;2023-07-29T07:48:59;5.70;;;5.30;;
20294;SDS011;10306;52.128;5.208;2023-07-29T07:51:24;5.67;;;5.17;;
20294;SDS011;10306;52.128;5.208;2023-07-29T07:53:50;5.70;;;5.30;;
20294;SDS011;10306;52.128;5.208;2023-07-29T07:56:16;5.33;;;5.03;;
20294;SDS011;10306;52.128;5.208;2023-07-29T07:58:42;6.43;;;6.13;;
20294;SDS011;10306;52.128;5.208;2023-07-29T08:01:09;6.27;;;5.77;;
20294;SDS011;10306;52.128;5.208;2023-07-29T08:03:35;5.93;;;5.63;;
20294;SDS011;10306;52.128;5.208;2023-07-29T08:06:02;5.47;;;5.13;;
20294;SDS011;10306;52.128;5.208;2023-07-29T08:08:28;6.37;;;5.73;;
20294;SDS011;10306;52.128;5.208;2023-07-29T08:10:54;5.73;;;5.20;;
20294;SDS011;10306;52.128;5.208;2023-07-29T08:13:22;4.27;;;4.07;;
20294;SDS011;10306;52.128;5.208;2023-07-29T08:15:48;3.90;;;3.70;;
20294;SDS011;10306;52.128;5.208;2023-07-29T08:18:15;3.73;;;3.53;;
20294;SDS011;10306;52.128;5.208;2023-07-29T08:20:41;3.47;;;3.10;;
20294;SDS011;10306;52.128;5.208;2023-07-29T08:23:07;4.17;;;3.87;;
20294;SDS011;10306;52.128;5.208;2023-07-29T08:25:33;3.80;;;3.50;;
20294;SDS011;10306;52.128;5.208;2023-07-29T08:28:00;3.63;;;3.43;;
20294;SDS011;10306;52.128;5.208;2023-07-29T08:30:26;3.80;;;3.60;;
20294;SDS011;10306;52.128;5.208;2023-07-29T08:32:52;4.03;;;3.70;;
20294;SDS011;10306;52.128;5.208;2023-07-29T08:35:18;4.07;;;3.87;;
20294;SDS011;10306;52.128;5.208;2023-07-29T08:37:44;4.43;;;4.13;;
20294;SDS011;10306;52.128;5.208;2023-07-29T08:40:10;4.50;;;4.20;;
20294;SDS011;10306;52.128;5.208;2023-07-29T08:42:36;4.40;;;4.10;;
20294;SDS011;10306;52.128;5.208;2023-07-29T08:45:06;3.77;;;3.67;;
20294;SDS011;10306;52.128;5.208;2023-07-29T08:47:36;4.50;;;4.20;;
20294;SDS011;10306;52.128;5.208;2023-07-29T08:50:02;3.90;;;3.70;;
20294;SDS011;10306;52.128;5.208;2023-07-29T08:52:29;4.60;;;4.30;;
20294;SDS011;10306;52.128;5.208;2023-07-29T08:54:57;4.13;;;3.83;;
20294;SDS011;10306;52.128;5.208;2023-07-29T08:57:23;4.23;;;3.77;;
20294;SDS011;10306;52.128;5.208;2023-07-29T08:59:49;4.40;;;4.00;;
20294;SDS011;10306;52.128;5.208;2023-07-29T09:02:15;5.23;;;4.83;;
20294;SDS011;10306;52.128;5.208;2023-07-29T09:04:41;5.30;;;5.00;;
20294;SDS011;10306;52.128;5.208;2023-07-29T09:07:08;4.93;;;4.53;;
20294;SDS011;10306;52.128;5.208;2023-07-29T09:09:35;4.70;;;4.40;;
20294;SDS011;10306;52.128;5.208;2023-07-29T09:12:01;4.70;;;4.13;;
20294;SDS011;10306;52.128;5.208;2023-07-29T09:14:27;3.60;;;3.43;;
20294;SDS011;10306;52.128;5.208;2023-07-29T09:16:53;3.50;;;3.30;;
20294;SDS011;10306;52.128;5.208;2023-07-29T09:19:19;4.10;;;3.90;;
20294;SDS011;10306;52.128;5.208;2023-07-29T09:21:46;4.37;;;3.67;;
20294;SDS011;10306;52.128;5.208;2023-07-29T09:24:12;4.00;;;3.70;;
20294;SDS011;10306;52.128;5.208;2023-07-29T09:26:38;3.90;;;3.70;;
20294;SDS011;10306;52.128;5.208;2023-07-29T09:29:04;3.80;;;3.67;;
20294;SDS011;10306;52.128;5.208;2023-07-29T09:31:30;3.73;;;3.43;;
20294;SDS011;10306;52.128;5.208;2023-07-29T09:33:56;5.32;;;3.75;;
20294;SDS011;10306;52.128;5.208;2023-07-29T09:36:23;4.40;;;4.00;;
20294;SDS011;10306;52.128;5.208;2023-07-29T09:38:52;4.40;;;4.10;;
20294;SDS011;10306;52.128;5.208;2023-07-29T09:41:18;3.97;;;3.77;;
20294;SDS011;10306;52.128;5.208;2023-07-29T09:43:44;3.67;;;3.47;;
20294;SDS011;10306;52.128;5.208;2023-07-29T09:46:10;4.33;;;3.93;;
20294;SDS011;10306;52.128;5.208;2023-07-29T09:48:37;4.43;;;4.23;;
20294;SDS011;10306;52.128;5.208;2023-07-29T09:51:12;4.80;;;4.50;;
20294;SDS011;10306;52.128;5.208;2023-07-29T09:53:39;5.00;;;4.60;;
20294;SDS011;10306;52.128;5.208;2023-07-29T09:56:06;4.23;;;4.00;;
20294;SDS011;10306;52.128;5.208;2023-07-29T09:58:32;4.30;;;4.00;;
20294;SDS011;10306;52.128;5.208;2023-07-29T10:00:58;4.10;;;3.90;;
20294;SDS011;10306;52.128;5.208;2023-07-29T10:03:24;5.60;;;3.50;;
20294;SDS011;10306;52.128;5.208;2023-07-29T10:05:50;3.60;;;3.30;;
20294;SDS011;10306;52.128;5.208;2023-07-29T10:08:17;3.23;;;2.93;;
20294;SDS011;10306;52.128;5.208;2023-07-29T10:10:43;3.47;;;3.20;;
20294;SDS011;10306;52.128;5.208;2023-07-29T10:13:10;3.97;;;3.27;;
20294;SDS011;10306;52.128;5.208;2023-07-29T10:15:36;3.40;;;3.20;;
20294;SDS011;10306;52.128;5.208;2023-07-29T10:18:02;3.45;;;3.03;;
20294;SDS011;10306;52.128;5.208;2023-07-29T10:20:30;3.83;;;3.40;;
20294;SDS011;10306;52.128;5.208;2023-07-29T10:22:59;4.03;;;3.83;;
20294;SDS011;10306;52.128;5.208;2023-07-29T10:25:25;4.50;;;4.20;;
20294;SDS011;10306;52.128;5.208;2023-07-29T10:27:56;5.03;;;4.73;;
20294;SDS011;10306;52.128;5.208;2023-07-29T10:30:22;5.20;;;4.90;;
20294;SDS011;10306;52.128;5.208;2023-07-29T10:32:50;5.90;;;5.40;;
20294;SDS011;10306;52.128;5.208;2023-07-29T10:35:17;6.13;;;5.53;;
20294;SDS011;10306;52.128;5.208;2023-07-29T10:37:43;6.10;;;5.70;;
20294;SDS011;10306;52.128;5.208;2023-07-29T10:40:10;6.17;;;5.87;;
20294;SDS011;10306;52.128;5.208;2023-07-29T10:42:37;5.90;;;5.50;;
20294;SDS011;10306;52.128;5.208;2023-07-29T10:45:18;6.57;;;6.17;;
20294;SDS011;10306;52.128;5.208;2023-07-29T10:47:45;6.57;;;6.13;;
20294;SDS011;10306;52.128;5.208;2023-07-29T10:50:18;6.87;;;6.27;;
20294;SDS011;10306;52.128;5.208;2023-07-29T10:52:46;6.90;;;6.40;;
20294;SDS011;10306;52.128;5.208;2023-07-29T10:57:52;4.53;;;4.33;;
20294;SDS011;10306;52.128;5.208;2023-07-29T11:00:21;4.30;;;4.10;;
20294;SDS011;10306;52.128;5.208;2023-07-29T11:02:58;3.13;;;2.93;;
20294;SDS011;10306;52.128;5.208;2023-07-29T11:05:26;2.37;;;2.27;;
20294;SDS011;10306;52.128;5.208;2023-07-29T11:07:52;2.20;;;2.10;;
20294;SDS011;10306;52.128;5.208;2023-07-29T11:10:18;2.13;;;2.03;;
20294;SDS011;10306;52.128;5.208;2023-07-29T11:12:51;5.33;;;2.20;;
20294;SDS011;10306;52.128;5.208;2023-07-29T11:15:23;1.97;;;1.87;;
20294;SDS011;10306;52.128;5.208;2023-07-29T11:17:50;2.50;;;2.30;;
20294;SDS011;10306;52.128;5.208;2023-07-29T11:20:18;2.10;;;2.00;;
20294;SDS011;10306;52.128;5.208;2023-07-29T11:22:44;2.10;;;2.00;;
20294;SDS011;10306;52.128;5.208;2023-07-29T11:25:12;1.50;;;1.40;;
20294;SDS011;10306;52.128;5.208;2023-07-29T11:27:38;1.70;;;1.70;;
20294;SDS011;10306;52.128;5.208;2023-07-29T11:30:05;2.80;;;1.30;;
20294;SDS011;10306;52.128;5.208;2023-07-29T11:32:32;1.37;;;1.27;;
20294;SDS011;10306;52.128;5.208;2023-07-29T11:35:04;1.30;;;1.30;;
20294;SDS011;10306;52.128;5.208;2023-07-29T11:37:32;1.00;;;1.00;;
20294;SDS011;10306;52.128;5.208;2023-07-29T11:39:58;1.10;;;1.00;;
20294;SDS011;10306;52.128;5.208;2023-07-29T11:42:24;1.10;;;1.10;;
20294;SDS011;10306;52.128;5.208;2023-07-29T11:44:51;1.10;;;1.10;;
20294;SDS011;10306;52.128;5.208;2023-07-29T11:47:17;1.50;;;1.47;;
20294;SDS011;10306;52.128;5.208;2023-07-29T11:49:43;1.93;;;1.73;;
20294;SDS011;10306;52.128;5.208;2023-07-29T11:52:10;2.27;;;1.80;;
20294;SDS011;10306;52.128;5.208;2023-07-29T11:54:36;2.10;;;1.90;;
20294;SDS011;10306;52.128;5.208;2023-07-29T11:57:06;3.83;;;2.30;;
20294;SDS011;10306;52.128;5.208;2023-07-29T11:59:33;2.37;;;2.27;;
20294;SDS011;10306;52.128;5.208;2023-07-29T12:02:00;2.10;;;2.00;;
20294;SDS011;10306;52.128;5.208;2023-07-29T12:04:27;2.10;;;2.00;;
20294;SDS011;10306;52.128;5.208;2023-07-29T12:06:53;2.03;;;1.93;;
20294;SDS011;10306;52.128;5.208;2023-07-29T12:09:19;2.13;;;2.00;;
20294;SDS011;10306;52.128;5.208;2023-07-29T12:11:45;2.27;;;2.10;;
20294;SDS011;10306;52.128;5.208;2023-07-29T12:14:11;1.65;;;1.65;;
20294;SDS011;10306;52.128;5.208;2023-07-29T12:16:41;1.67;;;1.60;;
20294;SDS011;10306;52.128;5.208;2023-07-29T12:19:07;1.58;;;1.55;;
20294;SDS011;10306;52.128;5.208;2023-07-29T12:21:33;2.07;;;1.93;;
20294;SDS011;10306;52.128;5.208;2023-07-29T12:23:59;2.08;;;1.98;;
20294;SDS011;10306;52.128;5.208;2023-07-29T12:26:28;2.00;;;1.98;;
20294;SDS011;10306;52.128;5.208;2023-07-29T12:28:54;1.87;;;1.77;;
20294;SDS011;10306;52.128;5.208;2023-07-29T12:31:21;2.53;;;2.43;;
20294;SDS011;10306;52.128;5.208;2023-07-29T12:33:47;2.30;;;2.20;;
20294;SDS011;10306;52.128;5.208;2023-07-29T12:36:13;2.20;;;2.10;;
20294;SDS011;10306;52.128;5.208;2023-07-29T12:38:42;2.17;;;2.08;;
20294;SDS011;10306;52.128;5.208;2023-07-29T12:41:08;2.30;;;2.20;;
20294;SDS011;10306;52.128;5.208;2023-07-29T12:43:34;2.38;;;2.28;;
20294;SDS011;10306;52.128;5.208;2023-07-29T12:46:00;1.83;;;1.80;;
20294;SDS011;10306;52.128;5.208;2023-07-29T12:48:26;1.95;;;1.85;;
20294;SDS011;10306;52.128;5.208;2023-07-29T12:50:52;1.95;;;1.85;;
20294;SDS011;10306;52.128;5.208;2023-07-29T12:53:18;2.45;;;2.08;;
20294;SDS011;10306;52.128;5.208;2023-07-29T12:55:44;2.05;;;1.95;;
20294;SDS011;10306;52.128;5.208;2023-07-29T12:58:10;1.90;;;1.80;;
20294;SDS011;10306;52.128;5.208;2023-07-29T13:00:36;2.00;;;1.90;;
20294;SDS011;10306;52.128;5.208;2023-07-29T13:03:03;1.45;;;1.45;;
20294;SDS011;10306;52.128;5.208;2023-07-29T13:05:30;1.60;;;1.60;;
20294;SDS011;10306;52.128;5.208;2023-07-29T13:07:56;1.60;;;1.50;;
20294;SDS011;10306;52.128;5.208;2023-07-29T13:10:24;1.70;;;1.60;;
20294;SDS011;10306;52.128;5.208;2023-07-29T13:12:50;1.55;;;1.55;;
20294;SDS011;10306;52.128;5.208;2023-07-29T13:15:15;1.42;;;1.42;;
20294;SDS011;10306;52.128;5.208;2023-07-29T13:17:41;1.88;;;1.77;;
20294;SDS011;10306;52.128;5.208;2023-07-29T13:20:08;1.80;;;1.70;;
20294;SDS011;10306;52.128;5.208;2023-07-29T13:22:34;1.33;;;1.33;;
20294;SDS011;10306;52.128;5.208;2023-07-29T13:25:00;1.48;;;1.48;;
20294;SDS011;10306;52.128;5.208;2023-07-29T13:27:26;1.60;;;1.60;;
20294;SDS011;10306;52.128;5.208;2023-07-29T13:29:52;1.50;;;1.50;;
20294;SDS011;10306;52.128;5.208;2023-07-29T13:32:18;1.90;;;1.80;;
20294;SDS011;10306;52.128;5.208;2023-07-29T13:34:44;1.83;;;1.73;;
20294;SDS011;10306;52.128;5.208;2023-07-29T13:37:10;1.80;;;1.70;;
20294;SDS011;10306;52.128;5.208;2023-07-29T13:39:36;1.90;;;1.80;;
20294;SDS011;10306;52.128;5.208;2023-07-29T13:42:02;1.77;;;1.70;;
20294;SDS011;10306;52.128;5.208;2023-07-29T13:44:28;1.60;;;1.55;;
20294;SDS011;10306;52.128;5.208;2023-07-29T13:46:53;1.58;;;1.58;;
20294;SDS011;10306;52.128;5.208;2023-07-29T13:49:19;1.70;;;1.70;;
20294;SDS011;10306;52.128;5.208;2023-07-29T13:51:45;1.85;;;1.80;;
20294;SDS011;10306;52.128;5.208;2023-07-29T13:54:11;1.90;;;1.90;;
20294;SDS011;10306;52.128;5.208;2023-07-29T13:56:37;1.73;;;1.73;;
20294;SDS011;10306;52.128;5.208;2023-07-29T13:59:03;2.03;;;1.88;;
20294;SDS011;10306;52.128;5.208;2023-07-29T14:01:29;1.90;;;1.80;;
20294;SDS011;10306;52.128;5.208;2023-07-29T14:03:55;1.63;;;1.63;;
20294;SDS011;10306;52.128;5.208;2023-07-29T14:06:21;1.60;;;1.50;;
20294;SDS011;10306;52.128;5.208;2023-07-29T14:08:47;1.48;;;1.35;;
20294;SDS011;10306;52.128;5.208;2023-07-29T14:11:13;1.83;;;1.73;;
20294;SDS011;10306;52.128;5.208;2023-07-29T14:13:39;2.20;;;2.00;;
20294;SDS011;10306;52.128;5.208;2023-07-29T14:16:05;1.90;;;1.77;;
20294;SDS011;10306;52.128;5.208;2023-07-29T14:18:31;1.25;;;1.20;;
20294;SDS011;10306;52.128;5.208;2023-07-29T14:20:57;1.67;;;1.65;;
20294;SDS011;10306;52.128;5.208;2023-07-29T14:23:23;1.42;;;1.35;;
20294;SDS011;10306;52.128;5.208;2023-07-29T14:25:49;1.38;;;1.00;;
20294;SDS011;10306;52.128;5.208;2023-07-29T14:28:15;1.40;;;1.30;;
20294;SDS011;10306;52.128;5.208;2023-07-29T14:30:41;1.10;;;1.10;;
20294;SDS011;10306;52.128;5.208;2023-07-29T14:33:07;1.20;;;1.10;;
20294;SDS011;10306;52.128;5.208;2023-07-29T14:35:33;1.10;;;1.10;;
20294;SDS011;10306;52.128;5.208;2023-07-29T14:37:59;1.10;;;1.00;;
20294;SDS011;10306;52.128;5.208;2023-07-29T14:40:25;0.90;;;0.90;;
20294;SDS011;10306;52.128;5.208;2023-07-29T14:42:52;1.55;;;1.02;;
20294;SDS011;10306;52.128;5.208;2023-07-29T14:45:17;1.00;;;0.90;;
20294;SDS011;10306;52.128;5.208;2023-07-29T14:47:44;1.25;;;1.13;;
20294;SDS011;10306;52.128;5.208;2023-07-29T14:50:10;1.00;;;1.00;;